createdAt,value
2018-10-05T00:00:12.222Z,8.33
2018-10-05T00:02:40.229Z,8.23
2018-10-05T00:05:08.485Z,7.97
2018-10-05T00:07:36.564Z,8.30
2018-10-05T00:10:04.621Z,7.40
2018-10-05T00:12:32.848Z,7.43
2018-10-05T00:15:01.027Z,7.30
2018-10-05T00:17:29.034Z,6.77
2018-10-05T00:19:57.366Z,9.07
2018-10-05T00:22:25.409Z,7.37
2018-10-05T00:24:53.495Z,7.07
2018-10-05T00:27:21.740Z,7.03
2018-10-05T00:29:49.746Z,7.97
2018-10-05T00:32:17.781Z,7.07
2018-10-05T00:34:45.890Z,6.37
2018-10-05T00:37:14.011Z,6.87
2018-10-05T00:39:42.116Z,7.17
2018-10-05T00:42:10.179Z,7.00
2018-10-05T00:44:38.173Z,7.20
2018-10-05T00:47:06.539Z,7.20
2018-10-05T00:49:34.546Z,7.37
2018-10-05T00:52:02.596Z,7.37
2018-10-05T00:54:30.581Z,6.63
2018-10-05T00:56:58.784Z,6.60
2018-10-05T00:59:26.856Z,6.63
2018-10-05T01:01:55.099Z,6.93
2018-10-05T01:04:23.144Z,6.27
2018-10-05T01:06:51.202Z,8.20
2018-10-05T01:09:19.216Z,7.37
2018-10-05T01:11:47.222Z,8.20
2018-10-05T01:14:16.392Z,8.00
2018-10-05T01:16:44.427Z,9.00
2018-10-05T01:19:12.427Z,9.30
2018-10-05T01:21:40.727Z,8.87
2018-10-05T01:24:08.772Z,8.50
2018-10-05T01:26:36.792Z,8.63
2018-10-05T01:29:04.814Z,8.17
2018-10-05T01:31:32.812Z,8.47
2018-10-05T01:34:00.808Z,8.93
2018-10-05T01:36:28.852Z,9.67
2018-10-05T01:38:56.995Z,9.23
2018-10-05T01:41:24.942Z,9.40
2018-10-05T01:43:52.998Z,10.00
2018-10-05T01:46:20.993Z,10.87
2018-10-05T01:48:49.042Z,10.03
2018-10-05T01:51:26.690Z,9.60
2018-10-05T01:53:54.753Z,9.47
2018-10-05T01:56:22.767Z,9.17
2018-10-05T01:58:50.823Z,9.03
2018-10-05T02:01:18.802Z,9.30
2018-10-05T02:03:46.849Z,8.90
2018-10-05T02:06:14.915Z,7.73
2018-10-05T02:08:43.114Z,8.03
2018-10-05T02:11:11.102Z,8.50
2018-10-05T02:13:39.127Z,9.17
2018-10-05T02:16:07.517Z,9.53
2018-10-05T02:18:35.580Z,8.27
2018-10-05T02:21:03.637Z,9.50
2018-10-05T02:23:31.732Z,10.27
2018-10-05T02:25:59.823Z,9.70
2018-10-05T02:28:27.850Z,10.93
2018-10-05T02:30:55.878Z,10.23
2018-10-05T02:33:23.929Z,11.53
2018-10-05T02:35:51.881Z,9.47
2018-10-05T02:38:20.093Z,10.27
2018-10-05T02:40:48.120Z,9.13
2018-10-05T02:43:16.137Z,8.47
2018-10-05T02:45:44.134Z,9.67
2018-10-05T02:48:12.174Z,8.33
2018-10-05T02:50:40.159Z,8.83
2018-10-05T02:53:08.212Z,8.77
2018-10-05T02:55:36.214Z,10.37
2018-10-05T02:58:04.251Z,10.70
2018-10-05T03:00:43.192Z,10.77
2018-10-05T03:03:11.552Z,10.77
2018-10-05T03:05:39.540Z,9.83
2018-10-05T03:08:07.635Z,10.93
2018-10-05T03:10:35.809Z,12.60
2018-10-05T03:13:03.984Z,10.50
2018-10-05T03:15:32.099Z,11.83
2018-10-05T03:18:00.196Z,10.77
2018-10-05T03:20:28.266Z,11.50
2018-10-05T03:22:56.299Z,11.50
2018-10-05T03:25:24.331Z,12.13
2018-10-05T03:27:52.354Z,12.27
2018-10-05T03:30:20.399Z,11.87
2018-10-05T03:32:48.449Z,11.47
2018-10-05T03:35:16.557Z,11.73
2018-10-05T03:37:44.599Z,11.23
2018-10-05T03:40:12.691Z,12.50
2018-10-05T03:42:40.705Z,12.87
2018-10-05T03:45:09.029Z,13.63
2018-10-05T03:47:37.039Z,13.07
2018-10-05T03:50:05.614Z,13.77
2018-10-05T03:52:33.666Z,12.67
2018-10-05T03:55:01.780Z,12.17
2018-10-05T03:57:29.804Z,13.67
2018-10-05T03:59:57.948Z,14.50
2018-10-05T04:02:25.955Z,13.13
2018-10-05T04:04:54.084Z,13.70
2018-10-05T04:07:22.086Z,14.20
2018-10-05T04:09:50.140Z,13.87
2018-10-05T04:12:18.203Z,12.93
2018-10-05T04:14:46.446Z,13.17
2018-10-05T04:17:14.481Z,13.70
2018-10-05T04:19:42.506Z,13.37
2018-10-05T04:22:10.516Z,13.03
2018-10-05T04:24:38.540Z,12.37
2018-10-05T04:27:06.770Z,12.27
2018-10-05T04:29:34.961Z,13.50
2018-10-05T04:32:03.038Z,12.57
2018-10-05T04:34:31.353Z,9.13
2018-10-05T04:36:59.496Z,9.40
2018-10-05T04:39:27.571Z,12.67
2018-10-05T04:41:55.637Z,13.23
2018-10-05T04:44:23.677Z,12.70
2018-10-05T04:46:51.889Z,13.70
2018-10-05T04:49:20.133Z,14.60
2018-10-05T04:51:48.307Z,13.50
2018-10-05T04:54:16.606Z,13.87
2018-10-05T04:56:44.826Z,13.77
2018-10-05T04:59:13.036Z,14.80
2018-10-05T05:01:41.265Z,13.80
2018-10-05T05:04:09.565Z,13.47
2018-10-05T05:06:37.837Z,14.27
2018-10-05T05:09:07.025Z,13.00
2018-10-05T05:11:35.425Z,13.77
2018-10-05T05:14:03.664Z,13.63
2018-10-05T05:16:31.977Z,13.10
2018-10-05T05:19:00.197Z,12.47
2018-10-05T05:21:28.512Z,13.33
2018-10-05T05:23:57.065Z,12.67
2018-10-05T05:26:25.804Z,12.77
2018-10-05T05:28:53.966Z,13.90
2018-10-05T05:31:22.493Z,12.73
2018-10-05T05:33:51.057Z,13.40
2018-10-05T05:36:19.305Z,13.10
2018-10-05T05:38:47.705Z,14.20
2018-10-05T05:41:16.005Z,13.50
2018-10-05T05:43:44.216Z,13.57
2018-10-05T05:46:12.477Z,13.17
2018-10-05T05:48:40.798Z,14.33
2018-10-05T05:51:09.246Z,13.67
2018-10-05T05:53:37.637Z,14.23
2018-10-05T05:56:12.445Z,13.30
2018-10-05T05:58:40.705Z,11.83
2018-10-05T06:01:09.081Z,10.57
2018-10-05T06:03:38.467Z,10.50
2018-10-05T06:06:06.825Z,10.90
2018-10-05T06:08:35.085Z,9.50
2018-10-05T06:11:03.705Z,10.10
2018-10-05T06:13:31.953Z,10.13
2018-10-05T06:16:00.451Z,10.73
2018-10-05T06:18:28.640Z,10.07
2018-10-05T06:20:56.887Z,10.07
2018-10-05T06:23:25.121Z,9.57
2018-10-05T06:25:53.299Z,9.00
2018-10-05T06:28:21.460Z,8.80
2018-10-05T06:30:49.814Z,8.33
2018-10-05T06:33:18.057Z,8.37
2018-10-05T06:35:46.300Z,7.47
2018-10-05T06:38:14.595Z,7.73
2018-10-05T06:40:42.959Z,7.13
2018-10-05T06:43:11.240Z,7.80
2018-10-05T06:45:39.428Z,7.33
2018-10-05T06:48:07.612Z,7.63
2018-10-05T06:50:35.852Z,8.37
2018-10-05T06:53:04.057Z,7.97
2018-10-05T06:55:32.317Z,7.50
2018-10-05T06:58:00.597Z,7.57
2018-10-05T07:00:28.797Z,7.80
2018-10-05T07:02:57.149Z,7.83
2018-10-05T07:05:25.278Z,7.43
2018-10-05T07:07:53.556Z,7.40
2018-10-05T07:10:21.777Z,8.03
2018-10-05T07:12:49.984Z,8.00
2018-10-05T07:15:18.234Z,8.10
2018-10-05T07:17:46.476Z,7.30
2018-10-05T07:20:14.732Z,7.67
2018-10-05T07:22:42.959Z,7.73
2018-10-05T07:25:11.178Z,7.53
2018-10-05T07:27:39.666Z,7.53
2018-10-05T07:30:08.469Z,7.30
2018-10-05T07:32:36.648Z,7.33
2018-10-05T07:35:04.892Z,7.73
2018-10-05T07:37:33.149Z,7.40
2018-10-05T07:40:01.411Z,8.03
2018-10-05T07:42:29.889Z,7.20
2018-10-05T07:44:58.228Z,7.33
2018-10-05T07:47:26.488Z,7.20
2018-10-05T07:49:54.728Z,6.70
2018-10-05T07:52:23.029Z,6.73
2018-10-05T07:54:51.408Z,6.63
2018-10-05T07:57:19.814Z,7.27
2018-10-05T07:59:48.128Z,7.30
2018-10-05T08:02:16.428Z,6.43
2018-10-05T08:04:44.660Z,6.50
2018-10-05T08:07:12.928Z,6.87
2018-10-05T08:09:42.723Z,6.53
2018-10-05T08:12:11.076Z,7.20
2018-10-05T08:14:39.342Z,6.37
2018-10-05T08:17:07.695Z,6.40
2018-10-05T08:19:35.887Z,6.77
2018-10-05T08:22:04.152Z,6.43
2018-10-05T08:24:32.365Z,7.57
2018-10-05T08:27:00.799Z,6.73
2018-10-05T08:29:29.065Z,6.93
2018-10-05T08:31:57.552Z,7.50
2018-10-05T08:34:25.906Z,6.77
2018-10-05T08:36:54.152Z,7.70
2018-10-05T08:39:22.414Z,7.47
2018-10-05T08:41:50.751Z,7.63
2018-10-05T08:44:18.879Z,7.50
2018-10-05T08:46:47.081Z,7.63
2018-10-05T08:49:15.275Z,7.67
2018-10-05T08:51:43.547Z,8.13
2018-10-05T08:54:11.834Z,8.63
2018-10-05T08:56:40.034Z,7.03
2018-10-05T08:59:08.321Z,7.17
2018-10-05T09:01:36.512Z,8.17
2018-10-05T09:04:04.792Z,7.77
2018-10-05T09:06:32.933Z,7.63
2018-10-05T09:09:01.304Z,7.43
2018-10-05T09:11:29.955Z,7.03
2018-10-05T09:13:58.420Z,7.83
2018-10-05T09:16:26.604Z,7.57
2018-10-05T09:18:54.919Z,7.63
2018-10-05T09:21:23.037Z,7.13
2018-10-05T09:23:51.336Z,7.57
2018-10-05T09:26:19.604Z,6.93
2018-10-05T09:28:47.936Z,6.83
2018-10-05T09:31:16.176Z,6.80
2018-10-05T09:33:44.436Z,6.77
2018-10-05T09:36:12.756Z,6.93
2018-10-05T09:38:41.076Z,6.60
2018-10-05T09:41:09.284Z,6.70
2018-10-05T09:43:37.617Z,6.17
2018-10-05T09:46:05.936Z,5.83
2018-10-05T09:48:34.184Z,6.30
2018-10-05T09:51:02.356Z,6.10
2018-10-05T09:53:30.617Z,5.20
2018-10-05T09:55:58.876Z,5.90
2018-10-05T09:58:27.136Z,5.30
2018-10-05T10:01:00.776Z,5.57
2018-10-05T10:03:31.397Z,6.57
2018-10-05T10:05:59.916Z,5.30
2018-10-05T10:08:28.540Z,4.97
2018-10-05T10:10:57.056Z,5.33
2018-10-05T10:13:25.681Z,5.47
2018-10-05T10:15:53.953Z,5.17
2018-10-05T10:18:22.221Z,4.97
2018-10-05T10:20:50.574Z,5.10
2018-10-05T10:23:18.834Z,5.80
2018-10-05T10:25:47.154Z,4.57
2018-10-05T10:28:15.861Z,4.63
2018-10-05T10:30:44.154Z,5.50
2018-10-05T10:33:12.494Z,5.50
2018-10-05T10:35:40.756Z,5.30
2018-10-05T10:38:09.055Z,5.37
2018-10-05T10:40:37.314Z,5.47
2018-10-05T10:43:05.863Z,5.33
2018-10-05T10:45:34.166Z,4.70
2018-10-05T10:48:02.465Z,4.10
2018-10-05T10:50:30.765Z,4.80
2018-10-05T10:52:58.959Z,5.50
2018-10-05T10:55:27.269Z,4.73
2018-10-05T10:57:55.488Z,6.10
2018-10-05T11:00:23.831Z,5.30
2018-10-05T11:02:52.119Z,4.73
2018-10-05T11:05:20.460Z,4.80
2018-10-05T11:07:48.787Z,4.87
2018-10-05T11:10:17.029Z,4.70
2018-10-05T11:12:45.269Z,4.37
2018-10-05T11:15:13.570Z,4.23
2018-10-05T11:17:41.752Z,4.70
2018-10-05T11:20:10.129Z,4.13
2018-10-05T11:22:38.268Z,5.07
2018-10-05T11:25:06.509Z,4.73
2018-10-05T11:27:34.709Z,5.27
2018-10-05T11:30:03.029Z,4.17
2018-10-05T11:32:31.268Z,4.70
2018-10-05T11:34:59.532Z,4.40
2018-10-05T11:37:27.789Z,4.60
2018-10-05T11:39:56.041Z,4.20
2018-10-05T11:49:43.285Z,4.10
2018-10-05T11:52:15.185Z,3.83
2018-10-05T12:00:35.657Z,3.57
2018-10-05T13:37:33.400Z,2.00
2018-10-05T13:40:02.003Z,2.10
2018-10-05T13:42:30.740Z,2.00
2018-10-05T13:44:59.030Z,1.77
2018-10-05T13:47:27.799Z,2.23
2018-10-05T13:49:56.019Z,2.00
2018-10-05T13:52:30.621Z,1.73
2018-10-05T13:55:02.341Z,2.07
2018-10-05T13:57:50.081Z,1.70
2018-10-05T14:00:20.861Z,2.00
2018-10-05T14:02:49.243Z,1.93
2018-10-05T14:05:21.222Z,2.20
2018-10-05T14:14:55.569Z,2.00
2018-10-05T14:17:24.090Z,2.47
2018-10-05T14:19:52.430Z,2.53
2018-10-05T14:22:22.809Z,2.43
2018-10-05T14:24:51.111Z,2.17
2018-10-05T14:27:24.629Z,2.13
2018-10-05T14:29:54.829Z,2.40
2018-10-05T14:32:32.817Z,2.13
2018-10-05T14:35:12.369Z,2.43
2018-10-05T14:37:40.838Z,2.03
2018-10-05T14:40:09.097Z,2.90
2018-10-05T14:42:37.378Z,2.20
2018-10-05T14:45:06.078Z,2.33
2018-10-05T14:47:34.349Z,2.10
2018-10-05T14:50:02.537Z,2.40
2018-10-05T14:52:30.718Z,2.40
2018-10-05T14:54:58.877Z,2.37
2018-10-05T14:57:27.145Z,1.97
2018-10-05T14:59:55.478Z,2.23
2018-10-05T15:02:23.720Z,2.47
2018-10-05T15:04:52.039Z,2.57
2018-10-05T15:07:20.263Z,2.47
2018-10-05T15:09:48.454Z,2.80
2018-10-05T15:12:16.680Z,2.63
2018-10-05T15:14:45.007Z,2.30
2018-10-05T15:17:13.264Z,2.23
2018-10-05T15:19:41.559Z,2.30
2018-10-05T15:22:09.851Z,2.27
2018-10-05T15:24:38.104Z,2.80
2018-10-05T15:27:06.992Z,2.87
2018-10-05T15:29:35.196Z,2.40
2018-10-05T15:32:03.611Z,2.60
2018-10-05T15:34:31.871Z,2.60
2018-10-05T15:37:00.184Z,2.83
2018-10-05T15:39:28.483Z,2.57
2018-10-05T15:41:56.803Z,2.50
2018-10-05T15:44:25.159Z,2.63
2018-10-05T15:47:02.039Z,2.20
2018-10-05T15:49:31.007Z,2.30
2018-10-05T15:51:59.759Z,3.07
2018-10-05T15:54:27.968Z,2.50
2018-10-05T15:56:56.259Z,2.67
2018-10-05T15:59:24.988Z,2.20
2018-10-05T16:01:53.179Z,2.30
2018-10-05T16:04:21.447Z,2.40
2018-10-05T16:06:52.448Z,1.83
2018-10-05T16:09:20.699Z,2.10
2018-10-05T16:11:49.048Z,2.60
2018-10-05T16:14:17.086Z,2.23
2018-10-05T16:16:45.075Z,1.87
2018-10-05T16:19:13.120Z,1.90
2018-10-05T16:21:41.163Z,2.23
2018-10-05T16:24:10.923Z,2.07
2018-10-05T16:26:39.175Z,2.30
2018-10-05T16:29:07.215Z,2.60
2018-10-05T16:31:35.243Z,2.60
2018-10-05T16:34:03.276Z,2.53
2018-10-05T16:36:31.283Z,2.30
2018-10-05T16:38:59.275Z,2.87
2018-10-05T16:41:27.429Z,2.50
2018-10-05T16:43:55.781Z,2.53
2018-10-05T16:46:23.948Z,2.07
2018-10-05T16:48:52.149Z,2.70
2018-10-05T16:51:20.381Z,2.70
2018-10-05T16:53:48.561Z,2.80
2018-10-05T16:56:16.810Z,3.10
2018-10-05T16:58:45.009Z,2.73
2018-10-05T17:01:13.368Z,2.80
2018-10-05T17:03:41.436Z,3.40
2018-10-05T17:06:09.413Z,2.83
2018-10-05T17:08:40.662Z,2.70
2018-10-05T17:11:08.629Z,2.93
2018-10-05T17:13:36.622Z,3.13
2018-10-05T17:16:04.693Z,2.87
2018-10-05T17:18:32.776Z,2.47
2018-10-05T17:21:00.889Z,2.47
2018-10-05T17:23:29.172Z,2.77
2018-10-05T17:25:57.363Z,2.87
2018-10-05T17:28:25.414Z,3.10
2018-10-05T17:30:53.404Z,2.70
2018-10-05T17:33:21.534Z,2.90
2018-10-05T17:35:49.652Z,3.03
2018-10-05T17:38:17.738Z,3.40
2018-10-05T17:40:47.708Z,2.60
2018-10-05T17:43:15.953Z,2.33
2018-10-05T17:45:44.036Z,2.70
2018-10-05T17:48:15.138Z,3.07
2018-10-05T17:50:43.188Z,3.13
2018-10-05T17:53:11.278Z,3.27
2018-10-05T17:55:39.599Z,2.47
2018-10-05T17:58:07.780Z,2.80
2018-10-05T18:00:42.469Z,2.93
2018-10-05T18:03:10.568Z,2.93
2018-10-05T18:05:38.624Z,2.40
2018-10-05T18:08:06.707Z,2.90
2018-10-05T18:10:34.694Z,2.83
2018-10-05T18:13:02.827Z,2.77
2018-10-05T18:15:31.023Z,2.60
2018-10-05T18:17:59.399Z,2.50
2018-10-05T18:20:27.564Z,2.37
2018-10-05T18:22:55.694Z,2.50
2018-10-05T18:25:23.967Z,2.70
2018-10-05T18:27:52.267Z,2.60
2018-10-05T18:30:20.360Z,3.43
2018-10-05T18:32:48.413Z,3.13
2018-10-05T18:35:16.692Z,2.80
2018-10-05T18:37:44.780Z,3.00
2018-10-05T18:40:13.362Z,2.73
2018-10-05T18:42:41.606Z,2.80
2018-10-05T18:45:10.091Z,3.10
2018-10-05T18:47:38.860Z,2.93
2018-10-05T18:50:07.551Z,2.90
2018-10-05T18:52:35.893Z,2.60
2018-10-05T18:55:04.351Z,2.77
2018-10-05T18:57:32.547Z,2.90
2018-10-05T19:00:00.731Z,3.33
2018-10-05T19:02:28.947Z,2.80
2018-10-05T19:04:57.247Z,2.73
2018-10-05T19:07:25.374Z,2.80
2018-10-05T19:09:53.493Z,2.47
2018-10-05T19:12:21.646Z,3.17
2018-10-05T19:14:49.858Z,2.80
2018-10-05T19:17:17.966Z,2.70
2018-10-05T19:19:46.074Z,3.03
2018-10-05T19:22:14.125Z,2.80
2018-10-05T19:24:42.214Z,3.40
2018-10-05T19:27:10.446Z,3.30
2018-10-05T19:29:38.655Z,2.90
2018-10-05T19:32:06.713Z,3.03
2018-10-05T19:34:34.854Z,2.77
2018-10-05T19:37:02.874Z,3.10
2018-10-05T19:39:31.146Z,3.37
2018-10-05T19:41:59.297Z,3.23
2018-10-05T19:44:27.420Z,3.20
2018-10-05T19:46:55.499Z,4.00
2018-10-05T19:49:24.300Z,3.80
2018-10-05T19:51:52.354Z,3.10
2018-10-05T19:54:20.417Z,3.60
2018-10-05T20:14:13.196Z,3.87
2018-10-05T20:40:32.828Z,4.10
2018-10-05T22:03:38.373Z,3.40
2018-10-05T22:16:02.229Z,3.17
2018-10-05T22:22:43.615Z,3.37
2018-10-05T22:25:17.904Z,3.43
2018-10-05T22:27:46.745Z,3.03
2018-10-05T22:30:15.056Z,2.97
2018-10-05T22:33:39.560Z,3.23
2018-10-05T23:25:27.609Z,4.03
2018-10-05T23:30:57.869Z,3.67
2018-10-05T23:33:26.141Z,3.90
2018-10-05T23:35:54.537Z,4.37
2018-10-05T23:38:22.768Z,3.50
2018-10-05T23:40:51.009Z,4.10
2018-10-05T23:43:19.222Z,4.57
2018-10-05T23:45:47.521Z,4.03
2018-10-05T23:48:15.898Z,3.83
2018-10-05T23:50:44.153Z,4.70
2018-10-05T23:53:13.839Z,4.00
2018-10-05T23:55:42.048Z,3.90
2018-10-05T23:58:10.258Z,4.07
